sensor_id;sensor_type;location;lat;lon;timestamp;P1;durP1;ratioP1;P2;durP2;ratioP2
19191;SDS011;9728;48.194;16.346;2024-02-04T00:02:35;1.45;;;1.35;;
19191;SDS011;9728;48.194;16.346;2024-02-04T00:07:40;1.50;;;1.20;;
19191;SDS011;9728;48.194;16.346;2024-02-04T00:12:45;1.58;;;1.48;;
19191;SDS011;9728;48.194;16.346;2024-02-04T00:17:48;1.42;;;1.33;;
19191;SDS011;9728;48.194;16.346;2024-02-04T00:22:51;4.97;;;1.33;;
19191;SDS011;9728;48.194;16.346;2024-02-04T00:27:56;1.50;;;1.40;;
19191;SDS011;9728;48.194;16.346;2024-02-04T00:32:59;1.55;;;1.20;;
19191;SDS011;9728;48.194;16.346;2024-02-04T00:38:05;2.30;;;0.85;;
19191;SDS011;9728;48.194;16.346;2024-02-04T00:43:10;1.60;;;1.45;;
19191;SDS011;9728;48.194;16.346;2024-02-04T00:48:13;1.30;;;1.15;;
19191;SDS011;9728;48.194;16.346;2024-02-04T00:53:16;1.20;;;1.10;;
19191;SDS011;9728;48.194;16.346;2024-02-04T00:58:21;2.28;;;1.13;;
19191;SDS011;9728;48.194;16.346;2024-02-04T01:03:25;1.27;;;0.95;;
19191;SDS011;9728;48.194;16.346;2024-02-04T01:08:28;1.40;;;1.30;;
19191;SDS011;9728;48.194;16.346;2024-02-04T01:13:33;1.60;;;1.40;;
19191;SDS011;9728;48.194;16.346;2024-02-04T01:18:36;1.20;;;1.10;;
19191;SDS011;9728;48.194;16.346;2024-02-04T01:23:40;0.80;;;0.80;;
19191;SDS011;9728;48.194;16.346;2024-02-04T01:28:45;0.98;;;0.93;;
19191;SDS011;9728;48.194;16.346;2024-02-04T01:33:48;1.23;;;1.13;;
19191;SDS011;9728;48.194;16.346;2024-02-04T01:38:52;1.30;;;1.20;;
19191;SDS011;9728;48.194;16.346;2024-02-04T01:43:56;1.83;;;1.00;;
19191;SDS011;9728;48.194;16.346;2024-02-04T01:49:00;0.80;;;0.80;;
19191;SDS011;9728;48.194;16.346;2024-02-04T01:54:04;0.80;;;0.80;;
19191;SDS011;9728;48.194;16.346;2024-02-04T01:59:11;1.20;;;1.10;;
19191;SDS011;9728;48.194;16.346;2024-02-04T02:04:15;0.77;;;0.77;;
19191;SDS011;9728;48.194;16.346;2024-02-04T02:09:19;1.02;;;1.00;;
19191;SDS011;9728;48.194;16.346;2024-02-04T02:14:24;0.73;;;0.73;;
19191;SDS011;9728;48.194;16.346;2024-02-04T02:19:33;1.42;;;1.33;;
19191;SDS011;9728;48.194;16.346;2024-02-04T02:24:48;1.17;;;1.05;;
19191;SDS011;9728;48.194;16.346;2024-02-04T02:29:53;1.30;;;1.20;;
19191;SDS011;9728;48.194;16.346;2024-02-04T02:34:56;1.08;;;0.98;;
19191;SDS011;9728;48.194;16.346;2024-02-04T02:40:03;1.20;;;1.10;;
19191;SDS011;9728;48.194;16.346;2024-02-04T02:45:12;1.27;;;1.17;;
19191;SDS011;9728;48.194;16.346;2024-02-04T02:50:16;1.30;;;1.20;;
19191;SDS011;9728;48.194;16.346;2024-02-04T02:55:21;1.13;;;1.05;;
19191;SDS011;9728;48.194;16.346;2024-02-04T03:00:24;1.10;;;1.00;;
19191;SDS011;9728;48.194;16.346;2024-02-04T03:05:28;1.35;;;1.25;;
19191;SDS011;9728;48.194;16.346;2024-02-04T03:10:32;1.60;;;1.20;;
19191;SDS011;9728;48.194;16.346;2024-02-04T03:15:36;1.50;;;1.13;;
19191;SDS011;9728;48.194;16.346;2024-02-04T03:20:39;1.30;;;1.20;;
19191;SDS011;9728;48.194;16.346;2024-02-04T03:25:44;1.40;;;0.93;;
19191;SDS011;9728;48.194;16.346;2024-02-04T03:30:48;1.35;;;1.10;;
19191;SDS011;9728;48.194;16.346;2024-02-04T03:35:52;1.15;;;1.05;;
19191;SDS011;9728;48.194;16.346;2024-02-04T03:40:56;1.30;;;1.10;;
19191;SDS011;9728;48.194;16.346;2024-02-04T03:46:00;1.30;;;1.20;;
19191;SDS011;9728;48.194;16.346;2024-02-04T03:51:04;1.27;;;1.17;;
19191;SDS011;9728;48.194;16.346;2024-02-04T03:56:09;1.42;;;1.23;;
19191;SDS011;9728;48.194;16.346;2024-02-04T04:01:12;1.77;;;1.30;;
19191;SDS011;9728;48.194;16.346;2024-02-04T04:06:16;2.58;;;1.40;;
19191;SDS011;9728;48.194;16.346;2024-02-04T04:11:21;1.55;;;1.15;;
19191;SDS011;9728;48.194;16.346;2024-02-04T04:16:24;1.47;;;1.27;;
19191;SDS011;9728;48.194;16.346;2024-02-04T04:21:27;1.27;;;1.00;;
19191;SDS011;9728;48.194;16.346;2024-02-04T04:26:32;1.40;;;1.30;;
19191;SDS011;9728;48.194;16.346;2024-02-04T04:31:36;1.60;;;1.20;;
19191;SDS011;9728;48.194;16.346;2024-02-04T04:36:39;0.98;;;0.98;;
19191;SDS011;9728;48.194;16.346;2024-02-04T04:41:44;1.23;;;1.05;;
19191;SDS011;9728;48.194;16.346;2024-02-04T04:46:47;1.50;;;1.10;;
19191;SDS011;9728;48.194;16.346;2024-02-04T04:51:51;1.20;;;1.10;;
19191;SDS011;9728;48.194;16.346;2024-02-04T04:56:56;1.10;;;0.90;;
19191;SDS011;9728;48.194;16.346;2024-02-04T05:01:59;1.08;;;0.82;;
19191;SDS011;9728;48.194;16.346;2024-02-04T05:07:02;1.00;;;0.90;;
19191;SDS011;9728;48.194;16.346;2024-02-04T05:12:07;1.27;;;1.00;;
19191;SDS011;9728;48.194;16.346;2024-02-04T05:17:11;1.30;;;1.17;;
19191;SDS011;9728;48.194;16.346;2024-02-04T05:22:14;0.95;;;0.90;;
19191;SDS011;9728;48.194;16.346;2024-02-04T05:27:19;1.10;;;1.00;;
19191;SDS011;9728;48.194;16.346;2024-02-04T05:32:22;2.00;;;0.80;;
19191;SDS011;9728;48.194;16.346;2024-02-04T05:37:26;1.23;;;1.00;;
19191;SDS011;9728;48.194;16.346;2024-02-04T05:42:30;1.38;;;0.90;;
19191;SDS011;9728;48.194;16.346;2024-02-04T05:47:34;1.00;;;0.85;;
19191;SDS011;9728;48.194;16.346;2024-02-04T05:52:37;0.80;;;0.80;;
19191;SDS011;9728;48.194;16.346;2024-02-04T05:57:42;1.10;;;1.00;;
19191;SDS011;9728;48.194;16.346;2024-02-04T06:02:45;1.15;;;1.00;;
19191;SDS011;9728;48.194;16.346;2024-02-04T06:07:49;1.15;;;0.90;;
19191;SDS011;9728;48.194;16.346;2024-02-04T06:12:53;1.00;;;0.90;;
19191;SDS011;9728;48.194;16.346;2024-02-04T06:17:57;1.30;;;1.10;;
19191;SDS011;9728;48.194;16.346;2024-02-04T06:23:00;1.00;;;0.88;;
19191;SDS011;9728;48.194;16.346;2024-02-04T06:28:05;1.13;;;1.02;;
19191;SDS011;9728;48.194;16.346;2024-02-04T06:33:10;1.13;;;1.00;;
19191;SDS011;9728;48.194;16.346;2024-02-04T06:38:13;1.27;;;1.17;;
19191;SDS011;9728;48.194;16.346;2024-02-04T06:43:18;1.13;;;1.02;;
19191;SDS011;9728;48.194;16.346;2024-02-04T06:48:21;1.17;;;1.08;;
19191;SDS011;9728;48.194;16.346;2024-02-04T06:53:25;1.17;;;1.08;;
19191;SDS011;9728;48.194;16.346;2024-02-04T06:58:30;1.30;;;1.00;;
19191;SDS011;9728;48.194;16.346;2024-02-04T07:03:33;1.10;;;1.10;;
19191;SDS011;9728;48.194;16.346;2024-02-04T07:08:37;1.13;;;0.98;;
19191;SDS011;9728;48.194;16.346;2024-02-04T07:13:42;1.30;;;1.20;;
19191;SDS011;9728;48.194;16.346;2024-02-04T07:18:45;0.80;;;0.80;;
19191;SDS011;9728;48.194;16.346;2024-02-04T07:23:48;1.20;;;1.10;;
19191;SDS011;9728;48.194;16.346;2024-02-04T07:28:53;0.70;;;0.70;;
19191;SDS011;9728;48.194;16.346;2024-02-04T07:33:57;1.10;;;1.00;;
19191;SDS011;9728;48.194;16.346;2024-02-04T07:39:00;1.10;;;1.00;;
19191;SDS011;9728;48.194;16.346;2024-02-04T07:44:07;2.15;;;1.20;;
19191;SDS011;9728;48.194;16.346;2024-02-04T07:49:11;1.40;;;0.90;;
19191;SDS011;9728;48.194;16.346;2024-02-04T07:54:14;1.02;;;0.98;;
19191;SDS011;9728;48.194;16.346;2024-02-04T07:59:19;1.10;;;0.93;;
19191;SDS011;9728;48.194;16.346;2024-02-04T08:04:23;1.00;;;0.90;;
19191;SDS011;9728;48.194;16.346;2024-02-04T08:09:26;1.33;;;0.98;;
19191;SDS011;9728;48.194;16.346;2024-02-04T08:14:31;0.70;;;0.70;;
19191;SDS011;9728;48.194;16.346;2024-02-04T08:19:35;0.60;;;0.60;;
19191;SDS011;9728;48.194;16.346;2024-02-04T08:24:38;0.60;;;0.60;;
19191;SDS011;9728;48.194;16.346;2024-02-04T08:29:43;1.77;;;0.68;;
19191;SDS011;9728;48.194;16.346;2024-02-04T08:34:46;0.70;;;0.70;;
19191;SDS011;9728;48.194;16.346;2024-02-04T08:39:50;0.75;;;0.75;;
19191;SDS011;9728;48.194;16.346;2024-02-04T08:44:55;0.60;;;0.50;;
19191;SDS011;9728;48.194;16.346;2024-02-04T08:49:58;0.82;;;0.60;;
19191;SDS011;9728;48.194;16.346;2024-02-04T08:55:02;0.52;;;0.52;;
19191;SDS011;9728;48.194;16.346;2024-02-04T09:00:08;0.50;;;0.50;;
19191;SDS011;9728;48.194;16.346;2024-02-04T09:05:13;0.50;;;0.50;;
19191;SDS011;9728;48.194;16.346;2024-02-04T09:10:18;0.70;;;0.50;;
19191;SDS011;9728;48.194;16.346;2024-02-04T09:15:23;0.88;;;0.70;;
19191;SDS011;9728;48.194;16.346;2024-02-04T09:20:26;0.50;;;0.50;;
19191;SDS011;9728;48.194;16.346;2024-02-04T09:25:30;0.60;;;0.52;;
19191;SDS011;9728;48.194;16.346;2024-02-04T09:30:35;0.88;;;0.60;;
19191;SDS011;9728;48.194;16.346;2024-02-04T09:35:39;1.02;;;0.68;;
19191;SDS011;9728;48.194;16.346;2024-02-04T09:40:42;0.60;;;0.50;;
19191;SDS011;9728;48.194;16.346;2024-02-04T09:45:47;0.40;;;0.40;;
19191;SDS011;9728;48.194;16.346;2024-02-04T09:50:51;1.38;;;0.70;;
19191;SDS011;9728;48.194;16.346;2024-02-04T09:55:55;0.57;;;0.40;;
19191;SDS011;9728;48.194;16.346;2024-02-04T10:01:01;0.85;;;0.60;;
19191;SDS011;9728;48.194;16.346;2024-02-04T10:06:06;0.50;;;0.40;;
19191;SDS011;9728;48.194;16.346;2024-02-04T10:11:10;0.38;;;0.38;;
19191;SDS011;9728;48.194;16.346;2024-02-04T10:16:15;0.50;;;0.50;;
19191;SDS011;9728;48.194;16.346;2024-02-04T10:21:19;0.50;;;0.43;;
19191;SDS011;9728;48.194;16.346;2024-02-04T10:26:28;0.55;;;0.50;;
19191;SDS011;9728;48.194;16.346;2024-02-04T10:31:34;0.57;;;0.47;;
19191;SDS011;9728;48.194;16.346;2024-02-04T10:36:38;0.70;;;0.60;;
19191;SDS011;9728;48.194;16.346;2024-02-04T10:41:44;0.82;;;0.47;;
19191;SDS011;9728;48.194;16.346;2024-02-04T10:46:54;0.57;;;0.57;;
19191;SDS011;9728;48.194;16.346;2024-02-04T10:51:59;0.47;;;0.40;;
19191;SDS011;9728;48.194;16.346;2024-02-04T10:57:05;0.30;;;0.30;;
19191;SDS011;9728;48.194;16.346;2024-02-04T11:02:14;0.47;;;0.40;;
19191;SDS011;9728;48.194;16.346;2024-02-04T11:07:18;0.45;;;0.40;;
19191;SDS011;9728;48.194;16.346;2024-02-04T11:12:23;0.85;;;0.47;;
19191;SDS011;9728;48.194;16.346;2024-02-04T11:17:44;0.50;;;0.50;;
19191;SDS011;9728;48.194;16.346;2024-02-04T11:23:19;0.60;;;0.60;;
19191;SDS011;9728;48.194;16.346;2024-02-04T11:28:33;0.50;;;0.50;;
19191;SDS011;9728;48.194;16.346;2024-02-04T11:33:39;0.38;;;0.38;;
19191;SDS011;9728;48.194;16.346;2024-02-04T11:38:43;1.27;;;0.73;;
19191;SDS011;9728;48.194;16.346;2024-02-04T11:43:52;0.45;;;0.40;;
19191;SDS011;9728;48.194;16.346;2024-02-04T11:49:13;0.70;;;0.50;;
19191;SDS011;9728;48.194;16.346;2024-02-04T11:54:19;0.50;;;0.45;;
19191;SDS011;9728;48.194;16.346;2024-02-04T11:59:24;0.45;;;0.45;;
19191;SDS011;9728;48.194;16.346;2024-02-04T12:04:30;0.60;;;0.55;;
19191;SDS011;9728;48.194;16.346;2024-02-04T12:09:34;0.55;;;0.50;;
19191;SDS011;9728;48.194;16.346;2024-02-04T12:14:38;1.00;;;0.73;;
19191;SDS011;9728;48.194;16.346;2024-02-04T12:19:43;0.85;;;0.85;;
19191;SDS011;9728;48.194;16.346;2024-02-04T12:24:47;0.55;;;0.50;;
19191;SDS011;9728;48.194;16.346;2024-02-04T12:29:51;0.80;;;0.55;;
19191;SDS011;9728;48.194;16.346;2024-02-04T12:34:56;1.42;;;0.70;;
19191;SDS011;9728;48.194;16.346;2024-02-04T12:39:59;0.82;;;0.60;;
19191;SDS011;9728;48.194;16.346;2024-02-04T12:45:05;0.60;;;0.60;;
19191;SDS011;9728;48.194;16.346;2024-02-04T12:50:11;0.60;;;0.60;;
19191;SDS011;9728;48.194;16.346;2024-02-04T12:55:25;1.10;;;1.00;;
19191;SDS011;9728;48.194;16.346;2024-02-04T13:00:30;1.08;;;0.50;;
19191;SDS011;9728;48.194;16.346;2024-02-04T13:05:36;0.50;;;0.50;;
19191;SDS011;9728;48.194;16.346;2024-02-04T13:10:39;1.33;;;0.65;;
19191;SDS011;9728;48.194;16.346;2024-02-04T13:15:45;0.70;;;0.70;;
19191;SDS011;9728;48.194;16.346;2024-02-04T13:20:50;0.80;;;0.60;;
19191;SDS011;9728;48.194;16.346;2024-02-04T13:25:53;1.00;;;0.68;;
19191;SDS011;9728;48.194;16.346;2024-02-04T13:30:56;0.75;;;0.70;;
19191;SDS011;9728;48.194;16.346;2024-02-04T13:36:01;1.00;;;0.80;;
19191;SDS011;9728;48.194;16.346;2024-02-04T13:41:06;1.13;;;0.80;;
19191;SDS011;9728;48.194;16.346;2024-02-04T13:46:10;1.20;;;0.80;;
19191;SDS011;9728;48.194;16.346;2024-02-04T13:51:15;0.98;;;0.75;;
19191;SDS011;9728;48.194;16.346;2024-02-04T13:56:37;1.00;;;0.80;;
19191;SDS011;9728;48.194;16.346;2024-02-04T14:01:40;1.15;;;0.80;;
19191;SDS011;9728;48.194;16.346;2024-02-04T14:06:45;1.00;;;0.88;;
19191;SDS011;9728;48.194;16.346;2024-02-04T14:11:48;1.33;;;0.90;;
19191;SDS011;9728;48.194;16.346;2024-02-04T14:16:52;0.85;;;0.85;;
19191;SDS011;9728;48.194;16.346;2024-02-04T14:21:56;0.98;;;0.85;;
19191;SDS011;9728;48.194;16.346;2024-02-04T14:27:00;1.95;;;0.88;;
19191;SDS011;9728;48.194;16.346;2024-02-04T14:32:04;2.08;;;0.90;;
19191;SDS011;9728;48.194;16.346;2024-02-04T14:37:09;1.42;;;1.00;;
19191;SDS011;9728;48.194;16.346;2024-02-04T14:42:15;1.63;;;1.10;;
19191;SDS011;9728;48.194;16.346;2024-02-04T14:47:20;1.20;;;0.73;;
19191;SDS011;9728;48.194;16.346;2024-02-04T14:52:24;1.85;;;0.90;;
19191;SDS011;9728;48.194;16.346;2024-02-04T14:57:28;0.70;;;0.70;;
19191;SDS011;9728;48.194;16.346;2024-02-04T15:02:31;2.30;;;0.70;;
19191;SDS011;9728;48.194;16.346;2024-02-04T15:07:36;1.15;;;0.80;;
19191;SDS011;9728;48.194;16.346;2024-02-04T15:12:39;1.27;;;0.70;;
19191;SDS011;9728;48.194;16.346;2024-02-04T15:17:43;1.20;;;0.80;;
19191;SDS011;9728;48.194;16.346;2024-02-04T15:22:49;0.75;;;0.75;;
19191;SDS011;9728;48.194;16.346;2024-02-04T15:27:52;1.20;;;0.82;;
19191;SDS011;9728;48.194;16.346;2024-02-04T15:32:59;0.93;;;0.80;;
19191;SDS011;9728;48.194;16.346;2024-02-04T15:38:04;1.35;;;0.90;;
19191;SDS011;9728;48.194;16.346;2024-02-04T15:43:07;0.80;;;0.80;;
19191;SDS011;9728;48.194;16.346;2024-02-04T15:48:11;0.88;;;0.82;;
19191;SDS011;9728;48.194;16.346;2024-02-04T15:53:22;0.80;;;0.80;;
19191;SDS011;9728;48.194;16.346;2024-02-04T15:58:25;1.00;;;0.90;;
19191;SDS011;9728;48.194;16.346;2024-02-04T16:03:32;0.95;;;0.70;;
19191;SDS011;9728;48.194;16.346;2024-02-04T16:08:37;1.20;;;0.80;;
19191;SDS011;9728;48.194;16.346;2024-02-04T16:13:43;0.90;;;0.80;;
19191;SDS011;9728;48.194;16.346;2024-02-04T16:18:48;0.73;;;0.70;;
19191;SDS011;9728;48.194;16.346;2024-02-04T16:23:54;0.80;;;0.77;;
19191;SDS011;9728;48.194;16.346;2024-02-04T16:28:57;0.52;;;0.52;;
19191;SDS011;9728;48.194;16.346;2024-02-04T16:34:00;1.10;;;0.60;;
19191;SDS011;9728;48.194;16.346;2024-02-04T16:39:06;0.65;;;0.65;;
19191;SDS011;9728;48.194;16.346;2024-02-04T16:44:11;0.65;;;0.60;;
19191;SDS011;9728;48.194;16.346;2024-02-04T16:49:15;1.30;;;0.80;;
19191;SDS011;9728;48.194;16.346;2024-02-04T16:54:23;1.10;;;0.73;;
19191;SDS011;9728;48.194;16.346;2024-02-04T16:59:30;0.60;;;0.60;;
19191;SDS011;9728;48.194;16.346;2024-02-04T17:04:34;1.40;;;0.70;;
19191;SDS011;9728;48.194;16.346;2024-02-04T17:09:39;2.33;;;1.00;;
19191;SDS011;9728;48.194;16.346;2024-02-04T17:14:43;0.68;;;0.68;;
19191;SDS011;9728;48.194;16.346;2024-02-04T17:19:50;1.38;;;0.80;;
19191;SDS011;9728;48.194;16.346;2024-02-04T17:25:11;0.80;;;0.70;;
19191;SDS011;9728;48.194;16.346;2024-02-04T17:30:20;1.33;;;0.63;;
19191;SDS011;9728;48.194;16.346;2024-02-04T17:35:26;0.60;;;0.60;;
19191;SDS011;9728;48.194;16.346;2024-02-04T17:40:32;0.82;;;0.70;;
19191;SDS011;9728;48.194;16.346;2024-02-04T17:45:36;0.93;;;0.80;;
19191;SDS011;9728;48.194;16.346;2024-02-04T17:50:40;0.95;;;0.77;;
19191;SDS011;9728;48.194;16.346;2024-02-04T17:55:45;0.70;;;0.70;;
19191;SDS011;9728;48.194;16.346;2024-02-04T18:00:48;1.17;;;0.68;;
19191;SDS011;9728;48.194;16.346;2024-02-04T18:05:53;1.42;;;0.90;;
19191;SDS011;9728;48.194;16.346;2024-02-04T18:10:58;0.80;;;0.65;;
19191;SDS011;9728;48.194;16.346;2024-02-04T18:16:04;1.10;;;0.68;;
19191;SDS011;9728;48.194;16.346;2024-02-04T18:21:15;0.60;;;0.55;;
19191;SDS011;9728;48.194;16.346;2024-02-04T18:26:21;0.50;;;0.50;;
19191;SDS011;9728;48.194;16.346;2024-02-04T18:31:26;0.93;;;0.75;;
19191;SDS011;9728;48.194;16.346;2024-02-04T18:36:30;0.60;;;0.60;;
19191;SDS011;9728;48.194;16.346;2024-02-04T18:41:35;0.50;;;0.50;;
19191;SDS011;9728;48.194;16.346;2024-02-04T18:46:41;1.17;;;1.00;;
19191;SDS011;9728;48.194;16.346;2024-02-04T18:51:45;0.60;;;0.60;;
19191;SDS011;9728;48.194;16.346;2024-02-04T18:56:50;0.45;;;0.45;;
19191;SDS011;9728;48.194;16.346;2024-02-04T19:01:53;0.70;;;0.70;;
19191;SDS011;9728;48.194;16.346;2024-02-04T19:07:00;1.15;;;0.70;;
19191;SDS011;9728;48.194;16.346;2024-02-04T19:12:05;0.80;;;0.75;;
19191;SDS011;9728;48.194;16.346;2024-02-04T19:17:09;1.10;;;0.70;;
19191;SDS011;9728;48.194;16.346;2024-02-04T19:22:12;0.70;;;0.70;;
19191;SDS011;9728;48.194;16.346;2024-02-04T19:27:18;1.15;;;0.70;;
19191;SDS011;9728;48.194;16.346;2024-02-04T19:32:22;0.90;;;0.55;;
19191;SDS011;9728;48.194;16.346;2024-02-04T19:37:26;0.70;;;0.70;;
19191;SDS011;9728;48.194;16.346;2024-02-04T19:42:31;0.50;;;0.50;;
19191;SDS011;9728;48.194;16.346;2024-02-04T19:47:34;1.65;;;0.70;;
19191;SDS011;9728;48.194;16.346;2024-02-04T19:52:38;0.82;;;0.75;;
19191;SDS011;9728;48.194;16.346;2024-02-04T19:57:43;0.85;;;0.70;;
19191;SDS011;9728;48.194;16.346;2024-02-04T20:02:46;1.25;;;0.80;;
19191;SDS011;9728;48.194;16.346;2024-02-04T20:07:50;1.55;;;0.82;;
19191;SDS011;9728;48.194;16.346;2024-02-04T20:12:55;1.17;;;0.68;;
19191;SDS011;9728;48.194;16.346;2024-02-04T20:17:59;0.88;;;0.88;;
19191;SDS011;9728;48.194;16.346;2024-02-04T20:23:03;0.70;;;0.70;;
19191;SDS011;9728;48.194;16.346;2024-02-04T20:28:08;0.70;;;0.70;;
19191;SDS011;9728;48.194;16.346;2024-02-04T20:33:13;0.90;;;0.63;;
19191;SDS011;9728;48.194;16.346;2024-02-04T20:38:17;1.70;;;0.70;;
19191;SDS011;9728;48.194;16.346;2024-02-04T20:43:22;0.85;;;0.70;;
19191;SDS011;9728;48.194;16.346;2024-02-04T20:48:26;2.10;;;0.95;;
19191;SDS011;9728;48.194;16.346;2024-02-04T20:53:30;1.00;;;0.70;;
19191;SDS011;9728;48.194;16.346;2024-02-04T20:58:37;0.60;;;0.60;;
19191;SDS011;9728;48.194;16.346;2024-02-04T21:03:41;1.33;;;0.60;;
19191;SDS011;9728;48.194;16.346;2024-02-04T21:08:45;0.93;;;0.73;;
19191;SDS011;9728;48.194;16.346;2024-02-04T21:13:50;2.30;;;0.65;;
19191;SDS011;9728;48.194;16.346;2024-02-04T21:18:54;2.08;;;0.80;;
19191;SDS011;9728;48.194;16.346;2024-02-04T21:23:57;1.13;;;0.80;;
19191;SDS011;9728;48.194;16.346;2024-02-04T21:29:04;0.85;;;0.57;;
19191;SDS011;9728;48.194;16.346;2024-02-04T21:34:08;0.90;;;0.52;;
19191;SDS011;9728;48.194;16.346;2024-02-04T21:39:11;0.60;;;0.60;;
19191;SDS011;9728;48.194;16.346;2024-02-04T21:44:19;2.08;;;0.70;;
19191;SDS011;9728;48.194;16.346;2024-02-04T21:49:22;1.77;;;0.77;;
19191;SDS011;9728;48.194;16.346;2024-02-04T21:54:27;0.77;;;0.60;;
19191;SDS011;9728;48.194;16.346;2024-02-04T21:59:32;0.55;;;0.47;;
19191;SDS011;9728;48.194;16.346;2024-02-04T22:04:35;1.05;;;0.60;;
19191;SDS011;9728;48.194;16.346;2024-02-04T22:09:39;0.55;;;0.45;;
19191;SDS011;9728;48.194;16.346;2024-02-04T22:14:43;0.98;;;0.52;;
19191;SDS011;9728;48.194;16.346;2024-02-04T22:19:47;0.55;;;0.47;;
19191;SDS011;9728;48.194;16.346;2024-02-04T22:24:51;0.63;;;0.40;;
19191;SDS011;9728;48.194;16.346;2024-02-04T22:29:56;0.40;;;0.40;;
19191;SDS011;9728;48.194;16.346;2024-02-04T22:35:00;1.23;;;0.60;;
19191;SDS011;9728;48.194;16.346;2024-02-04T22:40:06;1.15;;;0.70;;
19191;SDS011;9728;48.194;16.346;2024-02-04T22:45:12;0.50;;;0.50;;
19191;SDS011;9728;48.194;16.346;2024-02-04T22:50:16;0.47;;;0.47;;
19191;SDS011;9728;48.194;16.346;2024-02-04T22:55:19;0.80;;;0.40;;
19191;SDS011;9728;48.194;16.346;2024-02-04T23:00:24;0.40;;;0.40;;
19191;SDS011;9728;48.194;16.346;2024-02-04T23:05:31;0.60;;;0.40;;
19191;SDS011;9728;48.194;16.346;2024-02-04T23:10:34;1.25;;;1.15;;
19191;SDS011;9728;48.194;16.346;2024-02-04T23:15:39;0.68;;;0.40;;
19191;SDS011;9728;48.194;16.346;2024-02-04T23:20:43;0.30;;;0.30;;
19191;SDS011;9728;48.194;16.346;2024-02-04T23:25:47;0.35;;;0.35;;
19191;SDS011;9728;48.194;16.346;2024-02-04T23:30:52;0.50;;;0.50;;
19191;SDS011;9728;48.194;16.346;2024-02-04T23:35:55;0.57;;;0.50;;
19191;SDS011;9728;48.194;16.346;2024-02-04T23:40:58;0.40;;;0.40;;
19191;SDS011;9728;48.194;16.346;2024-02-04T23:46:03;1.05;;;0.50;;
19191;SDS011;9728;48.194;16.346;2024-02-04T23:51:07;1.25;;;0.40;;
19191;SDS011;9728;48.194;16.346;2024-02-04T23:56:10;0.30;;;0.30;;
